sensor_id;sensor_type;location;lat;lon;timestamp;P1;durP1;ratioP1;P2;durP2;ratioP2
52974;SDS011;38839;45.186;5.720;2023-12-14T00:01:50;1.30;;;1.20;;
52974;SDS011;38839;45.186;5.720;2023-12-14T00:04:15;1.30;;;1.10;;
52974;SDS011;38839;45.186;5.720;2023-12-14T00:06:40;1.30;;;1.10;;
52974;SDS011;38839;45.186;5.720;2023-12-14T00:09:06;1.90;;;1.40;;
52974;SDS011;38839;45.186;5.720;2023-12-14T00:11:35;3.00;;;1.60;;
52974;SDS011;38839;45.186;5.720;2023-12-14T00:16:28;2.30;;;2.00;;
52974;SDS011;38839;45.186;5.720;2023-12-14T00:18:53;2.97;;;1.95;;
52974;SDS011;38839;45.186;5.720;2023-12-14T00:21:18;2.60;;;2.10;;
52974;SDS011;38839;45.186;5.720;2023-12-14T00:23:44;2.88;;;2.03;;
52974;SDS011;38839;45.186;5.720;2023-12-14T00:26:09;3.03;;;2.05;;
52974;SDS011;38839;45.186;5.720;2023-12-14T00:28:35;2.75;;;1.92;;
52974;SDS011;38839;45.186;5.720;2023-12-14T00:31:00;3.53;;;2.47;;
52974;SDS011;38839;45.186;5.720;2023-12-14T00:33:25;3.80;;;1.90;;
52974;SDS011;38839;45.186;5.720;2023-12-14T00:35:51;1.55;;;1.42;;
52974;SDS011;38839;45.186;5.720;2023-12-14T00:38:16;2.50;;;1.40;;
52974;SDS011;38839;45.186;5.720;2023-12-14T00:40:41;1.90;;;1.70;;
52974;SDS011;38839;45.186;5.720;2023-12-14T00:43:07;1.95;;;1.73;;
52974;SDS011;38839;45.186;5.720;2023-12-14T00:45:32;1.98;;;1.73;;
52974;SDS011;38839;45.186;5.720;2023-12-14T00:47:57;2.72;;;2.28;;
52974;SDS011;38839;45.186;5.720;2023-12-14T00:50:23;2.95;;;1.77;;
52974;SDS011;38839;45.186;5.720;2023-12-14T00:52:48;5.03;;;2.03;;
52974;SDS011;38839;45.186;5.720;2023-12-14T00:55:14;2.20;;;2.00;;
52974;SDS011;38839;45.186;5.720;2023-12-14T00:57:39;4.05;;;2.28;;
52974;SDS011;38839;45.186;5.720;2023-12-14T01:00:05;2.00;;;1.73;;
52974;SDS011;38839;45.186;5.720;2023-12-14T01:02:31;2.63;;;2.00;;
52974;SDS011;38839;45.186;5.720;2023-12-14T01:04:56;3.60;;;1.98;;
52974;SDS011;38839;45.186;5.720;2023-12-14T01:07:21;2.58;;;2.00;;
52974;SDS011;38839;45.186;5.720;2023-12-14T01:09:47;2.97;;;2.50;;
52974;SDS011;38839;45.186;5.720;2023-12-14T01:12:12;2.28;;;2.00;;
52974;SDS011;38839;45.186;5.720;2023-12-14T01:14:38;3.22;;;2.17;;
52974;SDS011;38839;45.186;5.720;2023-12-14T01:17:03;4.53;;;1.90;;
52974;SDS011;38839;45.186;5.720;2023-12-14T01:19:28;2.00;;;1.67;;
52974;SDS011;38839;45.186;5.720;2023-12-14T01:21:54;2.17;;;1.80;;
52974;SDS011;38839;45.186;5.720;2023-12-14T01:24:20;2.20;;;1.70;;
52974;SDS011;38839;45.186;5.720;2023-12-14T01:26:45;3.22;;;1.85;;
52974;SDS011;38839;45.186;5.720;2023-12-14T01:29:11;2.78;;;1.80;;
52974;SDS011;38839;45.186;5.720;2023-12-14T01:31:36;2.03;;;1.77;;
52974;SDS011;38839;45.186;5.720;2023-12-14T01:34:01;3.33;;;1.60;;
52974;SDS011;38839;45.186;5.720;2023-12-14T01:36:27;3.28;;;1.90;;
52974;SDS011;38839;45.186;5.720;2023-12-14T01:38:52;4.15;;;1.80;;
52974;SDS011;38839;45.186;5.720;2023-12-14T01:41:18;2.92;;;1.77;;
52974;SDS011;38839;45.186;5.720;2023-12-14T01:43:44;0.98;;;0.77;;
52974;SDS011;38839;45.186;5.720;2023-12-14T01:46:09;2.97;;;1.38;;
52974;SDS011;38839;45.186;5.720;2023-12-14T01:48:35;2.13;;;1.08;;
52974;SDS011;38839;45.186;5.720;2023-12-14T01:51:01;2.03;;;1.20;;
52974;SDS011;38839;45.186;5.720;2023-12-14T01:53:26;1.33;;;1.00;;
52974;SDS011;38839;45.186;5.720;2023-12-14T01:55:52;0.60;;;0.60;;
52974;SDS011;38839;45.186;5.720;2023-12-14T01:58:17;1.33;;;0.80;;
52974;SDS011;38839;45.186;5.720;2023-12-14T02:00:58;1.67;;;1.08;;
52974;SDS011;38839;45.186;5.720;2023-12-14T02:03:32;2.95;;;2.20;;
52974;SDS011;38839;45.186;5.720;2023-12-14T02:05:57;4.15;;;2.90;;
52974;SDS011;38839;45.186;5.720;2023-12-14T02:08:23;6.47;;;3.65;;
52974;SDS011;38839;45.186;5.720;2023-12-14T02:10:49;5.78;;;4.28;;
52974;SDS011;38839;45.186;5.720;2023-12-14T02:13:14;6.97;;;4.72;;
52974;SDS011;38839;45.186;5.720;2023-12-14T02:15:40;4.47;;;3.88;;
52974;SDS011;38839;45.186;5.720;2023-12-14T02:18:05;6.82;;;4.68;;
52974;SDS011;38839;45.186;5.720;2023-12-14T02:20:31;5.28;;;3.80;;
52974;SDS011;38839;45.186;5.720;2023-12-14T02:22:56;5.00;;;3.95;;
52974;SDS011;38839;45.186;5.720;2023-12-14T02:25:22;5.35;;;4.35;;
52974;SDS011;38839;45.186;5.720;2023-12-14T02:27:49;6.82;;;5.38;;
52974;SDS011;38839;45.186;5.720;2023-12-14T02:30:15;7.05;;;5.28;;
52974;SDS011;38839;45.186;5.720;2023-12-14T02:32:41;6.47;;;4.90;;
52974;SDS011;38839;45.186;5.720;2023-12-14T02:35:06;5.18;;;4.22;;
52974;SDS011;38839;45.186;5.720;2023-12-14T02:37:33;8.07;;;5.22;;
52974;SDS011;38839;45.186;5.720;2023-12-14T02:39:59;6.05;;;4.97;;
52974;SDS011;38839;45.186;5.720;2023-12-14T02:42:25;5.07;;;4.57;;
52974;SDS011;38839;45.186;5.720;2023-12-14T02:44:51;7.53;;;5.25;;
52974;SDS011;38839;45.186;5.720;2023-12-14T02:47:17;7.30;;;5.43;;
52974;SDS011;38839;45.186;5.720;2023-12-14T02:49:43;7.40;;;5.47;;
52974;SDS011;38839;45.186;5.720;2023-12-14T02:52:09;6.97;;;5.20;;
52974;SDS011;38839;45.186;5.720;2023-12-14T02:54:34;7.20;;;5.85;;
52974;SDS011;38839;45.186;5.720;2023-12-14T02:57:01;7.32;;;5.93;;
52974;SDS011;38839;45.186;5.720;2023-12-14T02:59:26;6.28;;;4.65;;
52974;SDS011;38839;45.186;5.720;2023-12-14T03:01:52;5.95;;;4.95;;
52974;SDS011;38839;45.186;5.720;2023-12-14T03:04:17;5.65;;;4.85;;
52974;SDS011;38839;45.186;5.720;2023-12-14T03:06:43;6.32;;;4.78;;
52974;SDS011;38839;45.186;5.720;2023-12-14T03:09:08;5.20;;;4.68;;
52974;SDS011;38839;45.186;5.720;2023-12-14T03:11:33;7.10;;;5.05;;
52974;SDS011;38839;45.186;5.720;2023-12-14T03:13:59;6.15;;;5.00;;
52974;SDS011;38839;45.186;5.720;2023-12-14T03:16:24;5.63;;;4.03;;
52974;SDS011;38839;45.186;5.720;2023-12-14T03:18:49;5.07;;;3.85;;
52974;SDS011;38839;45.186;5.720;2023-12-14T03:21:17;5.22;;;3.85;;
52974;SDS011;38839;45.186;5.720;2023-12-14T03:23:43;4.57;;;3.70;;
52974;SDS011;38839;45.186;5.720;2023-12-14T03:26:08;6.32;;;4.32;;
52974;SDS011;38839;45.186;5.720;2023-12-14T03:28:33;5.43;;;3.78;;
52974;SDS011;38839;45.186;5.720;2023-12-14T03:30:59;4.00;;;3.42;;
52974;SDS011;38839;45.186;5.720;2023-12-14T03:33:25;8.02;;;4.57;;
52974;SDS011;38839;45.186;5.720;2023-12-14T03:35:50;3.55;;;3.22;;
52974;SDS011;38839;45.186;5.720;2023-12-14T03:38:16;4.63;;;3.22;;
52974;SDS011;38839;45.186;5.720;2023-12-14T03:40:41;4.65;;;3.60;;
52974;SDS011;38839;45.186;5.720;2023-12-14T03:43:06;2.50;;;2.10;;
52974;SDS011;38839;45.186;5.720;2023-12-14T03:45:32;5.70;;;2.53;;
52974;SDS011;38839;45.186;5.720;2023-12-14T03:47:58;3.80;;;2.95;;
52974;SDS011;38839;45.186;5.720;2023-12-14T03:50:23;3.10;;;2.80;;
52974;SDS011;38839;45.186;5.720;2023-12-14T03:52:49;5.78;;;3.35;;
52974;SDS011;38839;45.186;5.720;2023-12-14T03:55:14;3.75;;;2.75;;
52974;SDS011;38839;45.186;5.720;2023-12-14T03:57:40;3.65;;;2.53;;
52974;SDS011;38839;45.186;5.720;2023-12-14T04:00:07;2.08;;;1.88;;
52974;SDS011;38839;45.186;5.720;2023-12-14T04:02:35;2.60;;;1.83;;
52974;SDS011;38839;45.186;5.720;2023-12-14T04:05:00;2.92;;;2.40;;
52974;SDS011;38839;45.186;5.720;2023-12-14T04:07:25;4.15;;;3.05;;
52974;SDS011;38839;45.186;5.720;2023-12-14T04:09:51;4.60;;;3.42;;
52974;SDS011;38839;45.186;5.720;2023-12-14T04:12:16;4.28;;;2.38;;
52974;SDS011;38839;45.186;5.720;2023-12-14T04:14:41;5.00;;;3.35;;
52974;SDS011;38839;45.186;5.720;2023-12-14T04:17:07;3.95;;;3.17;;
52974;SDS011;38839;45.186;5.720;2023-12-14T04:19:32;3.75;;;3.03;;
52974;SDS011;38839;45.186;5.720;2023-12-14T04:21:58;3.38;;;2.78;;
52974;SDS011;38839;45.186;5.720;2023-12-14T04:24:23;4.05;;;3.33;;
52974;SDS011;38839;45.186;5.720;2023-12-14T04:26:49;3.92;;;3.15;;
52974;SDS011;38839;45.186;5.720;2023-12-14T04:29:14;3.65;;;2.88;;
52974;SDS011;38839;45.186;5.720;2023-12-14T04:31:39;5.88;;;3.95;;
52974;SDS011;38839;45.186;5.720;2023-12-14T04:34:05;5.72;;;4.07;;
52974;SDS011;38839;45.186;5.720;2023-12-14T04:36:36;6.10;;;4.72;;
52974;SDS011;38839;45.186;5.720;2023-12-14T04:39:02;6.13;;;4.88;;
52974;SDS011;38839;45.186;5.720;2023-12-14T04:41:28;6.57;;;4.70;;
52974;SDS011;38839;45.186;5.720;2023-12-14T04:43:53;6.60;;;4.00;;
52974;SDS011;38839;45.186;5.720;2023-12-14T04:46:19;4.78;;;3.97;;
52974;SDS011;38839;45.186;5.720;2023-12-14T04:48:44;6.18;;;4.57;;
52974;SDS011;38839;45.186;5.720;2023-12-14T04:51:12;7.45;;;5.35;;
52974;SDS011;38839;45.186;5.720;2023-12-14T04:53:38;5.28;;;4.50;;
52974;SDS011;38839;45.186;5.720;2023-12-14T04:56:04;5.68;;;4.47;;
52974;SDS011;38839;45.186;5.720;2023-12-14T04:58:30;8.02;;;4.90;;
52974;SDS011;38839;45.186;5.720;2023-12-14T05:00:55;6.22;;;5.18;;
52974;SDS011;38839;45.186;5.720;2023-12-14T05:03:20;6.43;;;4.47;;
52974;SDS011;38839;45.186;5.720;2023-12-14T05:05:46;7.22;;;4.80;;
52974;SDS011;38839;45.186;5.720;2023-12-14T05:08:11;7.63;;;4.85;;
52974;SDS011;38839;45.186;5.720;2023-12-14T05:10:37;5.45;;;4.38;;
52974;SDS011;38839;45.186;5.720;2023-12-14T05:13:03;24.63;;;14.73;;
52974;SDS011;38839;45.186;5.720;2023-12-14T05:15:28;4.32;;;3.50;;
52974;SDS011;38839;45.186;5.720;2023-12-14T05:17:53;9.45;;;6.00;;
52974;SDS011;38839;45.186;5.720;2023-12-14T05:20:19;3.22;;;1.77;;
52974;SDS011;38839;45.186;5.720;2023-12-14T05:22:45;3.15;;;2.13;;
52974;SDS011;38839;45.186;5.720;2023-12-14T05:25:11;14.20;;;8.32;;
52974;SDS011;38839;45.186;5.720;2023-12-14T05:27:36;8.05;;;5.35;;
52974;SDS011;38839;45.186;5.720;2023-12-14T05:30:01;3.75;;;2.80;;
52974;SDS011;38839;45.186;5.720;2023-12-14T05:32:28;4.32;;;2.90;;
52974;SDS011;38839;45.186;5.720;2023-12-14T05:34:54;3.65;;;3.25;;
52974;SDS011;38839;45.186;5.720;2023-12-14T05:37:19;2.60;;;2.25;;
52974;SDS011;38839;45.186;5.720;2023-12-14T05:39:44;3.25;;;2.00;;
52974;SDS011;38839;45.186;5.720;2023-12-14T05:42:10;1.40;;;1.17;;
52974;SDS011;38839;45.186;5.720;2023-12-14T05:44:36;0.25;;;0.20;;
52974;SDS011;38839;45.186;5.720;2023-12-14T05:47:01;0.30;;;0.30;;
52974;SDS011;38839;45.186;5.720;2023-12-14T05:49:27;0.20;;;0.20;;
52974;SDS011;38839;45.186;5.720;2023-12-14T05:51:52;0.00;;;0.00;;
52974;SDS011;38839;45.186;5.720;2023-12-14T05:54:17;0.20;;;0.10;;
52974;SDS011;38839;45.186;5.720;2023-12-14T05:56:43;0.30;;;0.30;;
52974;SDS011;38839;45.186;5.720;2023-12-14T05:59:08;0.70;;;0.70;;
52974;SDS011;38839;45.186;5.720;2023-12-14T06:01:33;0.70;;;0.70;;
52974;SDS011;38839;45.186;5.720;2023-12-14T06:03:59;1.17;;;1.08;;
52974;SDS011;38839;45.186;5.720;2023-12-14T06:06:24;0.50;;;0.40;;
52974;SDS011;38839;45.186;5.720;2023-12-14T06:08:49;2.13;;;1.60;;
52974;SDS011;38839;45.186;5.720;2023-12-14T06:11:15;3.47;;;2.30;;
52974;SDS011;38839;45.186;5.720;2023-12-14T06:13:40;2.65;;;2.28;;
52974;SDS011;38839;45.186;5.720;2023-12-14T06:16:06;3.63;;;2.60;;
52974;SDS011;38839;45.186;5.720;2023-12-14T06:18:37;3.10;;;2.60;;
52974;SDS011;38839;45.186;5.720;2023-12-14T06:21:04;2.97;;;2.22;;
52974;SDS011;38839;45.186;5.720;2023-12-14T06:23:30;1.70;;;1.60;;
52974;SDS011;38839;45.186;5.720;2023-12-14T06:25:55;1.70;;;1.60;;
52974;SDS011;38839;45.186;5.720;2023-12-14T06:28:21;2.53;;;1.92;;
52974;SDS011;38839;45.186;5.720;2023-12-14T06:30:46;2.42;;;1.88;;
52974;SDS011;38839;45.186;5.720;2023-12-14T06:33:11;3.38;;;2.28;;
52974;SDS011;38839;45.186;5.720;2023-12-14T06:35:37;2.15;;;1.90;;
52974;SDS011;38839;45.186;5.720;2023-12-14T06:38:02;3.08;;;2.35;;
52974;SDS011;38839;45.186;5.720;2023-12-14T06:40:27;2.50;;;2.10;;
52974;SDS011;38839;45.186;5.720;2023-12-14T06:42:53;3.90;;;2.30;;
52974;SDS011;38839;45.186;5.720;2023-12-14T06:45:18;3.05;;;1.50;;
52974;SDS011;38839;45.186;5.720;2023-12-14T06:47:43;1.67;;;1.00;;
52974;SDS011;38839;45.186;5.720;2023-12-14T06:50:11;1.48;;;1.20;;
52974;SDS011;38839;45.186;5.720;2023-12-14T06:52:38;1.40;;;1.30;;
52974;SDS011;38839;45.186;5.720;2023-12-14T06:55:03;1.23;;;1.10;;
52974;SDS011;38839;45.186;5.720;2023-12-14T06:57:29;2.10;;;1.00;;
52974;SDS011;38839;45.186;5.720;2023-12-14T06:59:54;2.17;;;1.45;;
52974;SDS011;38839;45.186;5.720;2023-12-14T07:02:20;3.92;;;1.40;;
52974;SDS011;38839;45.186;5.720;2023-12-14T07:04:45;1.95;;;1.20;;
52974;SDS011;38839;45.186;5.720;2023-12-14T07:07:11;2.17;;;1.10;;
52974;SDS011;38839;45.186;5.720;2023-12-14T07:09:37;1.73;;;1.30;;
52974;SDS011;38839;45.186;5.720;2023-12-14T07:12:03;2.35;;;1.50;;
52974;SDS011;38839;45.186;5.720;2023-12-14T07:14:29;2.95;;;1.70;;
52974;SDS011;38839;45.186;5.720;2023-12-14T07:16:54;2.03;;;1.60;;
52974;SDS011;38839;45.186;5.720;2023-12-14T07:19:20;1.35;;;1.20;;
52974;SDS011;38839;45.186;5.720;2023-12-14T07:21:45;3.22;;;1.17;;
52974;SDS011;38839;45.186;5.720;2023-12-14T07:24:11;2.30;;;1.55;;
52974;SDS011;38839;45.186;5.720;2023-12-14T07:26:40;5.43;;;1.27;;
52974;SDS011;38839;45.186;5.720;2023-12-14T07:29:05;0.70;;;0.70;;
52974;SDS011;38839;45.186;5.720;2023-12-14T07:31:30;2.28;;;0.90;;
52974;SDS011;38839;45.186;5.720;2023-12-14T07:33:56;2.00;;;1.00;;
52974;SDS011;38839;45.186;5.720;2023-12-14T07:36:21;1.55;;;0.80;;
52974;SDS011;38839;45.186;5.720;2023-12-14T07:38:47;0.95;;;0.60;;
52974;SDS011;38839;45.186;5.720;2023-12-14T07:41:13;0.82;;;0.80;;
52974;SDS011;38839;45.186;5.720;2023-12-14T07:43:38;1.20;;;0.90;;
52974;SDS011;38839;45.186;5.720;2023-12-14T07:46:03;1.13;;;1.02;;
52974;SDS011;38839;45.186;5.720;2023-12-14T07:48:29;0.77;;;0.73;;
52974;SDS011;38839;45.186;5.720;2023-12-14T07:50:54;1.05;;;0.90;;
52974;SDS011;38839;45.186;5.720;2023-12-14T07:53:20;0.95;;;0.70;;
52974;SDS011;38839;45.186;5.720;2023-12-14T07:55:45;3.15;;;1.00;;
52974;SDS011;38839;45.186;5.720;2023-12-14T07:58:10;3.33;;;1.00;;
52974;SDS011;38839;45.186;5.720;2023-12-14T08:00:36;3.17;;;1.20;;
52974;SDS011;38839;45.186;5.720;2023-12-14T08:03:01;0.57;;;0.57;;
52974;SDS011;38839;45.186;5.720;2023-12-14T08:05:26;1.05;;;0.80;;
52974;SDS011;38839;45.186;5.720;2023-12-14T08:07:52;1.42;;;0.65;;
52974;SDS011;38839;45.186;5.720;2023-12-14T08:10:17;1.83;;;0.98;;
52974;SDS011;38839;45.186;5.720;2023-12-14T08:12:44;2.10;;;1.00;;
52974;SDS011;38839;45.186;5.720;2023-12-14T08:15:09;3.33;;;1.15;;
52974;SDS011;38839;45.186;5.720;2023-12-14T08:17:35;1.52;;;0.60;;
52974;SDS011;38839;45.186;5.720;2023-12-14T08:20:00;0.95;;;0.80;;
52974;SDS011;38839;45.186;5.720;2023-12-14T08:22:26;4.82;;;1.20;;
52974;SDS011;38839;45.186;5.720;2023-12-14T08:24:52;2.65;;;1.23;;
52974;SDS011;38839;45.186;5.720;2023-12-14T08:27:17;1.10;;;0.77;;
52974;SDS011;38839;45.186;5.720;2023-12-14T08:29:43;2.72;;;1.00;;
52974;SDS011;38839;45.186;5.720;2023-12-14T08:32:10;1.08;;;0.75;;
52974;SDS011;38839;45.186;5.720;2023-12-14T08:34:35;0.90;;;0.70;;
52974;SDS011;38839;45.186;5.720;2023-12-14T08:37:01;1.20;;;1.00;;
52974;SDS011;38839;45.186;5.720;2023-12-14T08:39:27;2.30;;;0.80;;
52974;SDS011;38839;45.186;5.720;2023-12-14T08:41:53;1.17;;;1.08;;
52974;SDS011;38839;45.186;5.720;2023-12-14T08:44:18;1.20;;;0.95;;
52974;SDS011;38839;45.186;5.720;2023-12-14T08:46:45;1.80;;;0.98;;
52974;SDS011;38839;45.186;5.720;2023-12-14T08:49:12;1.17;;;0.90;;
52974;SDS011;38839;45.186;5.720;2023-12-14T08:51:38;0.93;;;0.90;;
52974;SDS011;38839;45.186;5.720;2023-12-14T08:54:04;1.25;;;0.88;;
52974;SDS011;38839;45.186;5.720;2023-12-14T08:56:30;0.90;;;0.80;;
52974;SDS011;38839;45.186;5.720;2023-12-14T08:58:55;1.95;;;1.42;;
52974;SDS011;38839;45.186;5.720;2023-12-14T09:01:22;1.10;;;0.90;;
52974;SDS011;38839;45.186;5.720;2023-12-14T09:03:48;4.13;;;2.13;;
52974;SDS011;38839;45.186;5.720;2023-12-14T09:06:15;1.00;;;0.75;;
52974;SDS011;38839;45.186;5.720;2023-12-14T09:08:43;2.80;;;1.02;;
52974;SDS011;38839;45.186;5.720;2023-12-14T09:11:09;1.10;;;1.00;;
52974;SDS011;38839;45.186;5.720;2023-12-14T09:13:34;1.25;;;1.10;;
52974;SDS011;38839;45.186;5.720;2023-12-14T09:16:00;1.98;;;1.20;;
52974;SDS011;38839;45.186;5.720;2023-12-14T09:18:25;1.33;;;1.00;;
52974;SDS011;38839;45.186;5.720;2023-12-14T09:20:50;0.70;;;0.70;;
52974;SDS011;38839;45.186;5.720;2023-12-14T09:23:16;1.45;;;0.90;;
52974;SDS011;38839;45.186;5.720;2023-12-14T09:25:42;2.70;;;1.08;;
52974;SDS011;38839;45.186;5.720;2023-12-14T09:28:07;1.65;;;1.30;;
52974;SDS011;38839;45.186;5.720;2023-12-14T09:30:33;3.97;;;1.27;;
52974;SDS011;38839;45.186;5.720;2023-12-14T09:32:58;2.72;;;1.25;;
52974;SDS011;38839;45.186;5.720;2023-12-14T09:35:24;2.17;;;1.15;;
52974;SDS011;38839;45.186;5.720;2023-12-14T09:37:49;0.77;;;0.75;;
52974;SDS011;38839;45.186;5.720;2023-12-14T09:40:15;0.95;;;0.85;;
52974;SDS011;38839;45.186;5.720;2023-12-14T09:42:41;1.30;;;1.00;;
52974;SDS011;38839;45.186;5.720;2023-12-14T09:45:08;2.03;;;1.00;;
52974;SDS011;38839;45.186;5.720;2023-12-14T09:47:37;1.90;;;1.00;;
52974;SDS011;38839;45.186;5.720;2023-12-14T09:50:03;2.97;;;0.80;;
52974;SDS011;38839;45.186;5.720;2023-12-14T09:52:30;1.40;;;0.80;;
52974;SDS011;38839;45.186;5.720;2023-12-14T09:54:56;1.50;;;1.10;;
52974;SDS011;38839;45.186;5.720;2023-12-14T09:57:21;2.03;;;1.00;;
52974;SDS011;38839;45.186;5.720;2023-12-14T09:59:50;2.03;;;1.02;;
52974;SDS011;38839;45.186;5.720;2023-12-14T10:02:17;0.95;;;0.80;;
52974;SDS011;38839;45.186;5.720;2023-12-14T10:04:43;1.75;;;1.00;;
52974;SDS011;38839;45.186;5.720;2023-12-14T10:07:08;2.75;;;1.23;;
52974;SDS011;38839;45.186;5.720;2023-12-14T10:09:34;2.58;;;1.00;;
52974;SDS011;38839;45.186;5.720;2023-12-14T10:12:02;3.00;;;1.58;;
52974;SDS011;38839;45.186;5.720;2023-12-14T10:14:30;4.07;;;1.40;;
52974;SDS011;38839;45.186;5.720;2023-12-14T10:16:55;4.55;;;1.88;;
52974;SDS011;38839;45.186;5.720;2023-12-14T10:19:21;1.50;;;1.33;;
52974;SDS011;38839;45.186;5.720;2023-12-14T10:21:47;2.28;;;1.20;;
52974;SDS011;38839;45.186;5.720;2023-12-14T10:24:13;2.25;;;1.20;;
52974;SDS011;38839;45.186;5.720;2023-12-14T10:26:39;3.50;;;2.28;;
52974;SDS011;38839;45.186;5.720;2023-12-14T10:29:05;1.90;;;1.30;;
52974;SDS011;38839;45.186;5.720;2023-12-14T10:31:31;2.10;;;1.60;;
52974;SDS011;38839;45.186;5.720;2023-12-14T10:33:57;2.28;;;1.60;;
52974;SDS011;38839;45.186;5.720;2023-12-14T10:36:24;2.20;;;1.40;;
52974;SDS011;38839;45.186;5.720;2023-12-14T10:38:52;1.70;;;1.60;;
52974;SDS011;38839;45.186;5.720;2023-12-14T10:41:20;3.08;;;1.30;;
52974;SDS011;38839;45.186;5.720;2023-12-14T10:43:47;3.00;;;1.80;;
52974;SDS011;38839;45.186;5.720;2023-12-14T10:46:14;2.35;;;1.58;;
52974;SDS011;38839;45.186;5.720;2023-12-14T10:48:39;5.78;;;1.60;;
52974;SDS011;38839;45.186;5.720;2023-12-14T10:51:09;3.97;;;1.80;;
52974;SDS011;38839;45.186;5.720;2023-12-14T10:53:36;2.35;;;1.60;;
52974;SDS011;38839;45.186;5.720;2023-12-14T10:56:03;2.47;;;1.33;;
52974;SDS011;38839;45.186;5.720;2023-12-14T10:58:56;3.35;;;1.48;;
52974;SDS011;38839;45.186;5.720;2023-12-14T11:01:22;1.95;;;1.35;;
52974;SDS011;38839;45.186;5.720;2023-12-14T11:03:49;3.45;;;1.85;;
52974;SDS011;38839;45.186;5.720;2023-12-14T11:08:53;2.10;;;1.40;;
52974;SDS011;38839;45.186;5.720;2023-12-14T11:11:20;3.20;;;1.85;;
52974;SDS011;38839;45.186;5.720;2023-12-14T11:13:53;2.03;;;1.60;;
52974;SDS011;38839;45.186;5.720;2023-12-14T11:16:22;1.67;;;1.30;;
52974;SDS011;38839;45.186;5.720;2023-12-14T11:18:48;3.03;;;1.58;;
52974;SDS011;38839;45.186;5.720;2023-12-14T11:21:19;4.30;;;1.60;;
52974;SDS011;38839;45.186;5.720;2023-12-14T11:23:50;2.08;;;1.58;;
52974;SDS011;38839;45.186;5.720;2023-12-14T11:26:20;4.47;;;1.73;;
52974;SDS011;38839;45.186;5.720;2023-12-14T11:28:49;2.50;;;1.77;;
52974;SDS011;38839;45.186;5.720;2023-12-14T11:31:15;3.20;;;1.42;;
52974;SDS011;38839;45.186;5.720;2023-12-14T11:33:41;3.03;;;1.80;;
52974;SDS011;38839;45.186;5.720;2023-12-14T11:36:07;4.88;;;1.95;;
52974;SDS011;38839;45.186;5.720;2023-12-14T11:38:33;2.92;;;1.65;;
52974;SDS011;38839;45.186;5.720;2023-12-14T11:41:02;2.88;;;1.50;;
52974;SDS011;38839;45.186;5.720;2023-12-14T11:43:28;3.67;;;2.05;;
52974;SDS011;38839;45.186;5.720;2023-12-14T11:45:54;2.55;;;1.83;;
52974;SDS011;38839;45.186;5.720;2023-12-14T11:48:20;2.08;;;1.50;;
52974;SDS011;38839;45.186;5.720;2023-12-14T11:50:46;3.47;;;1.30;;
52974;SDS011;38839;45.186;5.720;2023-12-14T11:53:12;2.17;;;1.73;;
52974;SDS011;38839;45.186;5.720;2023-12-14T11:55:41;3.13;;;1.70;;
52974;SDS011;38839;45.186;5.720;2023-12-14T11:58:09;1.95;;;1.33;;
52974;SDS011;38839;45.186;5.720;2023-12-14T12:00:40;2.88;;;1.40;;
52974;SDS011;38839;45.186;5.720;2023-12-14T12:03:18;2.30;;;1.60;;
52974;SDS011;38839;45.186;5.720;2023-12-14T12:05:46;2.55;;;1.27;;
52974;SDS011;38839;45.186;5.720;2023-12-14T12:08:17;1.98;;;0.98;;
52974;SDS011;38839;45.186;5.720;2023-12-14T12:10:44;1.73;;;1.15;;
52974;SDS011;38839;45.186;5.720;2023-12-14T12:13:15;2.67;;;1.52;;
52974;SDS011;38839;45.186;5.720;2023-12-14T12:15:42;5.28;;;1.70;;
52974;SDS011;38839;45.186;5.720;2023-12-14T12:18:12;1.65;;;1.40;;
52974;SDS011;38839;45.186;5.720;2023-12-14T12:20:38;2.10;;;1.40;;
52974;SDS011;38839;45.186;5.720;2023-12-14T12:23:04;3.95;;;1.30;;
52974;SDS011;38839;45.186;5.720;2023-12-14T12:25:30;1.75;;;1.00;;
52974;SDS011;38839;45.186;5.720;2023-12-14T12:27:56;2.08;;;1.45;;
52974;SDS011;38839;45.186;5.720;2023-12-14T12:30:22;2.50;;;1.33;;
52974;SDS011;38839;45.186;5.720;2023-12-14T12:32:48;1.92;;;1.30;;
52974;SDS011;38839;45.186;5.720;2023-12-14T12:35:16;2.65;;;1.40;;
52974;SDS011;38839;45.186;5.720;2023-12-14T12:37:41;1.88;;;1.30;;
52974;SDS011;38839;45.186;5.720;2023-12-14T12:40:07;3.63;;;1.67;;
52974;SDS011;38839;45.186;5.720;2023-12-14T12:42:33;3.05;;;1.50;;
52974;SDS011;38839;45.186;5.720;2023-12-14T12:44:59;2.47;;;1.20;;
52974;SDS011;38839;45.186;5.720;2023-12-14T12:47:24;3.15;;;1.10;;
52974;SDS011;38839;45.186;5.720;2023-12-14T12:49:50;1.10;;;1.00;;
52974;SDS011;38839;45.186;5.720;2023-12-14T12:52:15;5.68;;;1.70;;
52974;SDS011;38839;45.186;5.720;2023-12-14T12:54:40;3.35;;;1.50;;
52974;SDS011;38839;45.186;5.720;2023-12-14T12:57:06;3.47;;;2.20;;
52974;SDS011;38839;45.186;5.720;2023-12-14T12:59:31;2.95;;;1.92;;
52974;SDS011;38839;45.186;5.720;2023-12-14T13:01:57;3.28;;;1.38;;
52974;SDS011;38839;45.186;5.720;2023-12-14T13:04:23;1.60;;;1.38;;
52974;SDS011;38839;45.186;5.720;2023-12-14T13:06:48;1.20;;;0.88;;
52974;SDS011;38839;45.186;5.720;2023-12-14T13:09:15;0.73;;;0.60;;
52974;SDS011;38839;45.186;5.720;2023-12-14T13:11:41;1.35;;;1.05;;
52974;SDS011;38839;45.186;5.720;2023-12-14T13:14:10;1.85;;;1.00;;
52974;SDS011;38839;45.186;5.720;2023-12-14T13:16:36;1.75;;;0.93;;
52974;SDS011;38839;45.186;5.720;2023-12-14T13:19:03;1.10;;;0.82;;
52974;SDS011;38839;45.186;5.720;2023-12-14T13:21:31;1.27;;;1.05;;
52974;SDS011;38839;45.186;5.720;2023-12-14T13:26:24;0.57;;;0.57;;
52974;SDS011;38839;45.186;5.720;2023-12-14T13:28:52;0.88;;;0.63;;
52974;SDS011;38839;45.186;5.720;2023-12-14T13:31:18;0.70;;;0.70;;
52974;SDS011;38839;45.186;5.720;2023-12-14T13:33:44;1.05;;;0.75;;
52974;SDS011;38839;45.186;5.720;2023-12-14T13:36:11;1.17;;;0.60;;
52974;SDS011;38839;45.186;5.720;2023-12-14T13:38:36;1.58;;;0.80;;
52974;SDS011;38839;45.186;5.720;2023-12-14T13:41:02;0.93;;;0.80;;
52974;SDS011;38839;45.186;5.720;2023-12-14T13:43:28;1.40;;;0.80;;
52974;SDS011;38839;45.186;5.720;2023-12-14T13:45:54;0.63;;;0.55;;
52974;SDS011;38839;45.186;5.720;2023-12-14T13:48:22;1.25;;;0.82;;
52974;SDS011;38839;45.186;5.720;2023-12-14T13:50:48;2.70;;;0.88;;
52974;SDS011;38839;45.186;5.720;2023-12-14T13:53:13;1.30;;;0.95;;
52974;SDS011;38839;45.186;5.720;2023-12-14T13:55:39;2.15;;;1.00;;
52974;SDS011;38839;45.186;5.720;2023-12-14T13:58:04;2.80;;;1.00;;
52974;SDS011;38839;45.186;5.720;2023-12-14T14:00:30;2.25;;;1.10;;
52974;SDS011;38839;45.186;5.720;2023-12-14T14:02:55;1.20;;;0.90;;
52974;SDS011;38839;45.186;5.720;2023-12-14T14:05:22;0.90;;;0.80;;
52974;SDS011;38839;45.186;5.720;2023-12-14T14:07:47;1.17;;;0.88;;
52974;SDS011;38839;45.186;5.720;2023-12-14T14:10:12;3.75;;;0.90;;
52974;SDS011;38839;45.186;5.720;2023-12-14T14:12:38;0.98;;;0.60;;
52974;SDS011;38839;45.186;5.720;2023-12-14T14:15:03;1.02;;;0.80;;
52974;SDS011;38839;45.186;5.720;2023-12-14T14:17:30;0.80;;;0.57;;
52974;SDS011;38839;45.186;5.720;2023-12-14T14:19:55;1.30;;;0.70;;
52974;SDS011;38839;45.186;5.720;2023-12-14T14:22:20;1.95;;;0.90;;
52974;SDS011;38839;45.186;5.720;2023-12-14T14:24:47;1.95;;;0.80;;
52974;SDS011;38839;45.186;5.720;2023-12-14T14:27:12;2.40;;;0.80;;
52974;SDS011;38839;45.186;5.720;2023-12-14T14:29:37;3.63;;;1.05;;
52974;SDS011;38839;45.186;5.720;2023-12-14T14:32:03;0.88;;;0.70;;
52974;SDS011;38839;45.186;5.720;2023-12-14T14:34:28;2.20;;;0.95;;
52974;SDS011;38839;45.186;5.720;2023-12-14T14:36:55;1.42;;;0.80;;
52974;SDS011;38839;45.186;5.720;2023-12-14T14:39:20;1.65;;;0.85;;
52974;SDS011;38839;45.186;5.720;2023-12-14T14:41:46;0.82;;;0.75;;
52974;SDS011;38839;45.186;5.720;2023-12-14T14:44:11;1.00;;;0.90;;
52974;SDS011;38839;45.186;5.720;2023-12-14T14:46:36;1.05;;;0.70;;
52974;SDS011;38839;45.186;5.720;2023-12-14T14:49:02;0.70;;;0.70;;